createdAt,value
2019-03-16T00:04:06.375Z,77245.09
2019-03-16T00:09:23.274Z,77236.11
2019-03-16T00:14:38.416Z,77252.09
2019-03-16T00:19:51.727Z,77247.09
2019-03-16T00:25:01.925Z,77249.09
2019-03-16T00:30:09.635Z,77244.09
2019-03-16T00:35:20.257Z,77253.09
2019-03-16T00:40:34.698Z,77255.08
2019-03-16T00:45:42.663Z,77258.08
2019-03-16T00:50:52.548Z,77265.06
2019-03-16T00:56:05.955Z,77263.07
2019-03-16T01:01:18.572Z,77275.05
2019-03-16T01:06:28.449Z,77291.03
2019-03-16T01:11:37.528Z,77292.03
2019-03-16T01:16:49.229Z,77305.01
2019-03-16T01:22:01.801Z,77305.01
2019-03-16T01:27:14.306Z,77307.01
2019-03-16T01:32:40.151Z,77315.00
2019-03-16T01:37:41.226Z,77306.01
2019-03-16T01:42:54.766Z,77309.00
2019-03-16T01:48:09.956Z,77309.00
2019-03-16T01:53:19.844Z,77316.99
2019-03-16T01:58:32.391Z,77311.00
2019-03-16T02:03:44.909Z,77316.99
2019-03-16T02:09:02.131Z,77317.99
2019-03-16T02:14:13.071Z,77318.98
2019-03-16T02:19:25.648Z,77323.98
2019-03-16T02:24:36.421Z,77306.01
2019-03-16T02:29:51.814Z,77295.02
2019-03-16T02:35:01.732Z,77299.02
2019-03-16T02:40:11.562Z,77293.03
2019-03-16T02:45:24.981Z,77295.02
2019-03-16T02:50:35.235Z,77295.02
2019-03-16T02:55:47.986Z,77291.03
2019-03-16T03:01:00.383Z,77278.05
2019-03-16T03:06:08.904Z,77282.05
2019-03-16T03:11:22.492Z,77278.05
2019-03-16T03:16:33.226Z,77270.06
2019-03-16T03:21:44.773Z,77276.05
2019-03-16T03:26:54.010Z,77277.05
2019-03-16T03:32:08.328Z,77277.05
2019-03-16T03:37:20.859Z,77274.05
2019-03-16T03:42:30.818Z,77275.05
2019-03-16T03:47:43.434Z,77267.06
2019-03-16T03:52:56.847Z,77266.06
2019-03-16T03:58:12.132Z,77260.08
2019-03-16T04:03:20.533Z,77255.08
2019-03-16T04:08:31.240Z,77253.09
2019-03-16T04:13:39.980Z,77250.09
2019-03-16T04:18:54.385Z,77254.08
2019-03-16T04:24:02.407Z,77243.09
2019-03-16T04:29:09.306Z,77258.08
2019-03-16T04:34:29.128Z,77258.08
2019-03-16T04:39:35.367Z,77256.08
2019-03-16T04:44:47.973Z,77263.07
2019-03-16T04:50:04.138Z,77274.05
2019-03-16T04:55:12.248Z,77265.06
2019-03-16T05:00:20.711Z,77269.06
2019-03-16T05:05:35.881Z,77271.06
2019-03-16T05:10:45.886Z,77267.06
2019-03-16T05:15:54.898Z,77247.09
2019-03-16T05:21:07.940Z,77243.09
2019-03-16T05:26:25.192Z,77236.11
2019-03-16T05:31:33.229Z,77242.10
2019-03-16T05:36:46.535Z,77247.09
2019-03-16T05:41:57.035Z,77257.08
2019-03-16T05:47:09.573Z,77252.09
2019-03-16T05:52:21.219Z,77273.05
2019-03-16T05:57:31.941Z,77272.06
2019-03-16T06:02:45.388Z,77267.06
2019-03-16T06:07:58.252Z,77268.06
2019-03-16T06:13:09.139Z,77269.06
2019-03-16T06:18:22.614Z,77266.06
2019-03-16T06:23:36.324Z,77278.05
2019-03-16T06:28:44.702Z,77263.07
2019-03-16T06:34:01.799Z,77268.06
2019-03-16T06:39:12.774Z,77255.08
2019-03-16T06:44:27.045Z,77254.08
2019-03-16T06:49:35.845Z,77236.11
2019-03-16T06:54:48.357Z,77236.11
2019-03-16T07:00:03.785Z,77229.13
2019-03-16T07:05:13.888Z,77211.15
2019-03-16T07:10:23.942Z,77200.16
2019-03-16T07:15:36.581Z,77191.17
2019-03-16T07:20:49.093Z,77178.20
2019-03-16T07:25:57.977Z,77159.22
2019-03-16T07:31:08.836Z,77136.26
2019-03-16T07:36:19.588Z,77117.29
2019-03-16T07:41:27.511Z,77110.30
2019-03-16T07:46:42.662Z,77095.32
2019-03-16T07:51:57.032Z,77086.34
2019-03-16T07:57:08.268Z,77055.38
2019-03-16T08:02:18.954Z,77009.45
2019-03-16T08:07:48.581Z,76965.52
2019-03-16T08:12:56.247Z,76935.56
2019-03-16T08:18:08.173Z,76919.59
2019-03-16T08:23:18.843Z,76903.62
2019-03-16T08:28:28.039Z,76884.65
2019-03-16T08:33:40.489Z,76879.66
2019-03-16T08:38:50.224Z,76876.66
2019-03-16T08:44:05.413Z,76863.68
2019-03-16T08:49:15.207Z,76852.70
2019-03-16T08:54:21.711Z,76859.69
2019-03-16T08:59:35.175Z,76865.67
2019-03-16T09:04:47.205Z,76865.67
2019-03-16T09:09:58.859Z,76855.69
2019-03-16T09:15:14.952Z,76844.70
2019-03-16T09:20:29.156Z,76845.70
2019-03-16T09:25:40.741Z,76843.71
2019-03-16T09:30:53.199Z,76839.72
2019-03-16T09:36:04.742Z,76843.71
2019-03-16T09:41:12.247Z,76837.72
2019-03-16T09:46:20.215Z,76837.72
2019-03-16T09:51:31.787Z,76791.80
2019-03-16T09:56:42.441Z,76766.83
2019-03-16T10:01:55.114Z,76729.89
2019-03-16T10:07:07.524Z,76717.91
2019-03-16T10:12:16.412Z,76721.91
2019-03-16T10:17:25.372Z,76728.89
2019-03-16T10:22:36.037Z,76727.90
2019-03-16T10:27:43.331Z,76727.90
2019-03-16T10:32:53.320Z,76725.90
2019-03-16T10:38:05.156Z,76715.91
2019-03-16T10:43:20.323Z,76701.94
2019-03-16T10:48:34.694Z,76687.96
2019-03-16T10:53:49.029Z,76679.97
2019-03-16T10:59:03.315Z,76664.00
2019-03-16T11:04:35.461Z,76660.00
2019-03-16T11:09:44.316Z,76660.00
2019-03-16T11:14:55.975Z,76679.97
2019-03-16T11:20:08.731Z,76668.99
2019-03-16T11:25:21.440Z,76659.01
2019-03-16T11:30:27.743Z,76643.03
2019-03-16T11:35:37.588Z,76637.05
2019-03-16T11:40:51.374Z,76637.05
2019-03-16T11:46:01.990Z,76593.11
2019-03-16T11:51:10.820Z,76542.20
2019-03-16T11:56:23.303Z,76530.22
2019-03-16T12:01:39.176Z,76538.20
2019-03-16T12:06:51.580Z,76539.20
2019-03-16T12:12:06.819Z,76542.20
2019-03-16T12:17:16.576Z,76538.20
2019-03-16T12:22:27.139Z,76535.21
2019-03-16T12:27:37.719Z,76556.17
2019-03-16T12:32:50.282Z,76586.13
2019-03-16T12:38:02.024Z,76562.16
2019-03-16T12:43:09.519Z,76477.30
2019-03-16T12:48:21.313Z,76504.27
2019-03-16T12:53:32.550Z,76514.25
2019-03-16T12:58:46.910Z,76544.20
2019-03-16T13:03:57.750Z,76564.16
2019-03-16T13:09:08.039Z,76564.16
2019-03-16T13:14:20.511Z,76579.14
2019-03-16T13:19:37.541Z,76550.19
2019-03-16T13:24:48.723Z,76543.20
2019-03-16T13:30:02.086Z,76563.16
2019-03-16T13:35:13.410Z,76556.17
2019-03-16T13:40:24.899Z,76556.17
2019-03-16T13:45:38.245Z,76495.28
2019-03-16T13:50:53.319Z,76494.28
2019-03-16T13:56:02.206Z,76492.28
2019-03-16T14:01:13.605Z,76470.31
2019-03-16T14:06:21.687Z,76474.31
2019-03-16T14:11:30.522Z,76495.28
2019-03-16T14:16:42.372Z,76490.28
2019-03-16T14:21:56.425Z,76466.33
2019-03-16T14:27:14.503Z,76466.33
2019-03-16T14:32:23.570Z,76472.31
2019-03-16T14:37:34.474Z,76479.30
2019-03-16T14:42:45.061Z,76473.31
2019-03-16T14:47:57.443Z,76471.31
2019-03-16T14:53:06.299Z,76472.31
2019-03-16T14:58:17.102Z,76478.30
2019-03-16T15:03:27.726Z,76466.33
2019-03-16T15:08:40.135Z,76459.34
2019-03-16T15:13:51.555Z,76454.34
2019-03-16T15:19:03.974Z,76449.35
2019-03-16T15:24:17.399Z,76450.35
2019-03-16T15:29:34.733Z,76441.37
2019-03-16T15:34:47.107Z,76450.35
2019-03-16T15:39:54.748Z,76440.38
2019-03-16T15:45:02.017Z,76434.38
2019-03-16T15:50:12.867Z,76439.38
2019-03-16T15:55:21.145Z,76439.38
2019-03-16T16:00:31.244Z,76426.39
2019-03-16T16:05:38.533Z,76429.39
2019-03-16T16:11:01.022Z,76428.39
2019-03-16T16:16:05.257Z,76427.39
2019-03-16T16:21:16.771Z,76445.36
2019-03-16T16:26:29.094Z,76432.38
2019-03-16T16:31:42.407Z,76428.39
2019-03-16T16:36:53.252Z,76425.39
2019-03-16T16:42:07.395Z,76412.42
2019-03-16T16:47:24.721Z,76414.41
2019-03-16T16:52:35.142Z,76412.42
2019-03-16T16:57:45.262Z,76414.41
2019-03-16T17:02:57.762Z,76423.40
2019-03-16T17:08:08.512Z,76424.39
2019-03-16T17:13:20.993Z,76412.42
2019-03-16T17:18:40.606Z,76402.44
2019-03-16T17:23:51.747Z,76402.44
2019-03-16T17:28:59.798Z,76408.42
2019-03-16T17:34:14.823Z,76411.42
2019-03-16T17:39:27.111Z,76415.41
2019-03-16T17:44:38.566Z,76424.39
2019-03-16T17:49:49.172Z,76425.39
2019-03-16T17:54:58.884Z,76416.41
2019-03-16T18:00:12.390Z,76410.42
2019-03-16T18:05:21.227Z,76410.42
2019-03-16T18:10:34.755Z,76407.42
2019-03-16T18:15:44.987Z,76405.43
2019-03-16T18:21:00.579Z,76406.42
2019-03-16T18:26:10.439Z,76407.42
2019-03-16T18:31:25.613Z,76404.43
2019-03-16T18:36:34.917Z,76389.45
2019-03-16T18:41:44.647Z,76393.45
2019-03-16T18:47:01.623Z,76382.47
2019-03-16T18:52:16.936Z,76371.48
2019-03-16T18:57:32.899Z,76374.48
2019-03-16T19:02:40.150Z,76376.48
2019-03-16T19:08:46.916Z,76352.52
2019-03-16T19:13:56.077Z,76339.54
2019-03-16T19:19:04.228Z,76322.57
2019-03-16T19:24:10.982Z,76319.58
2019-03-16T19:29:24.326Z,76320.58
2019-03-16T19:34:36.739Z,76320.58
2019-03-16T19:39:50.055Z,76317.58
2019-03-16T19:44:58.918Z,76307.59
2019-03-16T19:50:11.629Z,76307.59
2019-03-16T19:55:26.787Z,76302.60
2019-03-16T20:00:39.320Z,76294.62
2019-03-16T20:05:49.107Z,76270.66
2019-03-16T20:11:06.477Z,76274.65
2019-03-16T20:16:07.134Z,76276.65
2019-03-16T20:21:22.404Z,76269.66
2019-03-16T20:26:37.539Z,76258.67
2019-03-16T20:31:48.180Z,76258.67
2019-03-16T20:37:01.528Z,76254.69
2019-03-16T20:42:08.949Z,76262.67
2019-03-16T20:47:21.384Z,76263.67
2019-03-16T20:52:33.062Z,76252.69
2019-03-16T20:57:48.426Z,76239.71
2019-03-16T21:03:00.866Z,76234.72
2019-03-16T21:08:09.155Z,76243.70
2019-03-16T21:13:28.944Z,76240.71
2019-03-16T21:18:37.949Z,76250.69
2019-03-16T21:23:49.526Z,76227.73
2019-03-16T21:29:06.439Z,76227.73
2019-03-16T21:34:25.351Z,76230.73
2019-03-16T21:39:39.716Z,76223.73
2019-03-16T21:44:54.055Z,76219.75
2019-03-16T21:50:05.681Z,76204.77
2019-03-16T21:55:14.538Z,76197.78
2019-03-16T22:00:21.718Z,76188.80
2019-03-16T22:05:35.972Z,76192.80
2019-03-16T22:10:49.431Z,76202.78
2019-03-16T22:16:06.312Z,76186.80
2019-03-16T22:21:21.476Z,76172.83
2019-03-16T22:26:31.239Z,76168.83
2019-03-16T22:31:40.153Z,76162.84
2019-03-16T22:36:51.686Z,76156.86
2019-03-16T22:42:06.151Z,76153.86
2019-03-16T22:47:16.197Z,76143.88
2019-03-16T22:52:28.564Z,76153.86
2019-03-16T22:57:41.959Z,76136.89
2019-03-16T23:02:53.486Z,76144.88
2019-03-16T23:08:03.399Z,76134.89
2019-03-16T23:13:12.738Z,76128.91
2019-03-16T23:18:26.187Z,76103.95
2019-03-16T23:23:37.893Z,76112.94
2019-03-16T23:28:48.101Z,76104.95
2019-03-16T23:34:01.413Z,76108.94
2019-03-16T23:39:10.108Z,76100.95
2019-03-16T23:44:21.941Z,76100.95
2019-03-16T23:49:34.368Z,76107.94
2019-03-16T23:54:50.494Z,76089.97
